Time;durP1;ratioP1;P1;durP2;ratioP2;P2;SDS_P1;SDS_P2;PMS_P1;PMS_P2;Temp;Humidity;BMP_temperature;BMP_pressure;BME280_temperature;BME280_humidity;BME280_pressure;Samples;Min_cycle;Max_cycle;Signal;HPM_P1;HPM_P2
2022/11/30 00:04:41;;;;;;;100.40;36.15;;;;;;;-0.91;100.00;99910.90;4314860;81;21075;-86
2022/11/30 00:10:43;;;;;;;97.05;35.35;;;;;;;-0.93;100.00;99908.49;4329778;80;21588;-85
2022/11/30 00:16:45;;;;;;;102.35;35.65;;;;;;;-0.95;100.00;99910.64;4310220;81;21556;-84
2022/11/30 00:22:46;;;;;;;90.38;33.70;;;;;;;-0.98;100.00;99910.39;4313241;80;20999;-84
2022/11/30 00:28:47;;;;;;;97.10;35.05;;;;;;;-0.99;100.00;99911.48;4324072;81;21017;-84
2022/11/30 00:34:49;;;;;;;93.67;33.00;;;;;;;-0.98;100.00;99914.42;4322001;81;21293;-85
2022/11/30 00:40:51;;;;;;;82.17;32.95;;;;;;;-1.01;100.00;99923.85;4318538;81;21043;-85
2022/11/30 00:46:52;;;;;;;84.07;33.25;;;;;;;-1.02;100.00;99920.09;4334203;80;20988;-85
2022/11/30 00:52:53;;;;;;;86.00;31.83;;;;;;;-1.02;100.00;99923.59;4329075;80;21103;-83
2022/11/30 00:58:54;;;;;;;93.52;34.00;;;;;;;-1.04;100.00;99920.38;4328030;80;21099;-85
2022/11/30 01:04:56;;;;;;;91.95;35.68;;;;;;;-1.06;100.00;99919.84;4334083;80;21615;-84
2022/11/30 01:11:09;;;;;;;78.47;31.68;;;;;;;-1.07;100.00;99912.87;4314617;81;21012;-84
2022/11/30 01:17:11;;;;;;;86.12;32.50;;;;;;;-1.08;100.00;99910.45;4302906;80;21028;-84
2022/11/30 01:23:12;;;;;;;70.30;28.55;;;;;;;-1.05;100.00;99918.75;4316162;81;21408;-84
2022/11/30 01:29:13;;;;;;;86.67;32.30;;;;;;;-1.05;100.00;99913.94;4327291;80;21040;-84
2022/11/30 01:35:15;;;;;;;90.60;33.30;;;;;;;-1.08;100.00;99925.23;4313872;81;21540;-84
2022/11/30 01:41:27;;;;;;;91.57;31.07;;;;;;;-1.09;100.00;99908.83;4325366;81;21011;-84
2022/11/30 01:47:35;;;;;;;90.40;34.23;;;;;;;-1.08;100.00;99914.48;4327280;80;20996;-84
2022/11/30 01:53:37;;;;;;;97.33;35.67;;;;;;;-1.10;100.00;99913.42;4336528;80;20995;-83
2022/11/30 01:59:39;;;;;;;88.63;34.10;;;;;;;-1.10;100.00;99920.14;4387095;80;21007;-85
2022/11/30 02:05:41;;;;;;;95.95;35.40;;;;;;;-1.08;100.00;99931.39;4372861;80;21000;-84
2022/11/30 02:11:43;;;;;;;95.53;34.35;;;;;;;-1.12;100.00;99933.57;4178273;84;21950;-84
2022/11/30 02:18:08;;;;;;;89.83;33.60;;;;;;;-1.11;100.00;99943.26;4372520;80;21015;-84
2022/11/30 02:24:30;;;;;;;100.07;37.70;;;;;;;-1.10;100.00;99947.54;4384737;80;21489;-85
2022/11/30 02:30:34;;;;;;;86.97;33.77;;;;;;;-1.13;100.00;99942.19;4388905;79;21051;-83
2022/11/30 02:36:36;;;;;;;88.37;33.02;;;;;;;-1.15;100.00;99940.31;4375309;80;21405;-85
2022/11/30 02:42:37;;;;;;;84.27;32.07;;;;;;;-1.16;100.00;99945.40;4381494;80;21038;-84
2022/11/30 02:48:59;;;;;;;81.12;31.30;;;;;;;-1.21;100.00;99941.95;4371518;80;21123;-84
2022/11/30 02:55:06;;;;;;;77.67;29.40;;;;;;;-1.26;100.00;99944.64;4349847;80;21186;-84
2022/11/30 03:01:07;;;;;;;;;;;;;;;-1.25;100.00;99942.25;4313650;81;21075;-84
2022/11/30 03:07:08;;;;;;;79.63;29.73;;;;;;;-1.26;100.00;99939.27;4313533;80;20144;-83
2022/11/30 03:13:10;;;;;;;78.07;28.97;;;;;;;-1.27;100.00;99938.49;4320571;81;22022;-84
2022/11/30 03:19:13;;;;;;;70.83;29.52;;;;;;;-1.29;100.00;99944.67;4312910;81;21600;-84
2022/11/30 03:25:14;;;;;;;70.52;27.27;;;;;;;-1.26;100.00;99956.73;4319489;81;21023;-84
2022/11/30 03:31:16;;;;;;;73.87;28.75;;;;;;;-1.26;100.00;99956.73;4315087;81;21059;-84
2022/11/30 03:37:17;;;;;;;72.82;28.67;;;;;;;-1.21;100.00;99956.72;4312754;81;21501;-84
2022/11/30 03:43:18;;;;;;;78.37;30.37;;;;;;;-1.24;100.00;99959.96;4326920;80;21875;-85
2022/11/30 03:49:19;;;;;;;71.50;27.50;;;;;;;-1.27;100.00;99964.02;4326672;81;22099;-84
2022/11/30 03:55:20;;;;;;;70.13;27.47;;;;;;;-1.29;100.00;99963.47;4287561;81;21064;-84
2022/11/30 04:01:22;;;;;;;72.17;29.32;;;;;;;-1.29;100.00;99962.13;4285990;82;21067;-84
2022/11/30 04:07:23;;;;;;;75.10;29.83;;;;;;;-1.29;100.00;99962.13;4301348;82;21474;-84
2022/11/30 04:13:26;;;;;;;71.03;29.07;;;;;;;-1.25;100.00;99971.23;4306813;80;21967;-84
2022/11/30 04:19:27;;;;;;;73.83;27.77;;;;;;;-1.25;100.00;99965.86;4285690;82;21593;-84
2022/11/30 04:25:29;;;;;;;59.13;23.57;;;;;;;-1.30;100.00;99973.93;4310551;81;79339;-84
2022/11/30 04:31:30;;;;;;;59.37;25.33;;;;;;;-1.41;100.00;99978.28;4321165;81;21524;-84
2022/11/30 04:37:31;;;;;;;71.27;27.20;;;;;;;-1.49;100.00;99976.16;4298859;81;20953;-85
2022/11/30 04:43:33;;;;;;;70.22;28.50;;;;;;;-1.49;100.00;99982.34;4304314;81;21629;-84
2022/11/30 04:49:34;;;;;;;71.33;28.00;;;;;;;-1.40;100.00;99978.54;4376552;80;21614;-85
2022/11/30 04:55:37;;;;;;;67.40;26.77;;;;;;;-1.36;100.00;99985.78;4400614;78;21033;-84
2022/11/30 05:01:38;;;;;;;68.85;26.42;;;;;;;-1.44;100.00;99985.55;4455634;79;21060;-84
2022/11/30 05:07:39;;;;;;;62.77;23.73;;;;;;;-1.48;100.00;99994.68;4368169;80;21028;-84
2022/11/30 05:13:41;;;;;;;59.40;24.25;;;;;;;-1.48;100.00;99991.18;4451659;78;21561;-84
2022/11/30 05:19:42;;;;;;;60.47;25.27;;;;;;;-1.53;100.00;99992.00;4381238;80;20999;-85
2022/11/30 05:25:45;;;;;;;70.50;27.83;;;;;;;-1.60;100.00;99998.20;4374946;80;21058;-84
2022/11/30 05:31:46;;;;;;;63.83;26.03;;;;;;;-1.63;100.00;100000.09;4448685;78;22013;-85
2022/11/30 05:37:47;;;;;;;60.43;25.93;;;;;;;-1.64;100.00;100005.17;4468188;79;20975;-86
2022/11/30 05:43:49;;;;;;;58.90;26.07;;;;;;;-1.69;100.00;100003.30;4370381;80;21056;-85
2022/11/30 05:49:50;;;;;;;63.93;26.10;;;;;;;-1.70;100.00;100002.23;4475558;79;21542;-86
2022/11/30 05:55:51;;;;;;;65.80;26.87;;;;;;;-1.71;100.00;100006.01;4425091;79;21533;-85
2022/11/30 06:01:53;;;;;;;67.17;27.37;;;;;;;-1.68;100.00;100012.17;4424115;79;21489;-85
2022/11/30 06:07:54;;;;;;;58.57;24.03;;;;;;;-1.64;100.00;100011.36;4423696;79;21940;-87
2022/11/30 06:13:56;;;;;;;51.80;22.47;;;;;;;-1.67;100.00;100013.24;4361490;80;21004;-86
2022/11/30 06:19:57;;;;;;;57.50;25.83;;;;;;;-1.72;100.00;100018.61;4450516;78;20987;-85
2022/11/30 06:26:08;;;;;;;57.67;25.93;;;;;;;-1.83;100.00;100021.03;4385849;80;21067;-85
2022/11/30 06:32:09;;;;;;;56.93;24.90;;;;;;;-1.83;100.00;100030.43;4465429;79;21284;-85
2022/11/30 06:38:10;;;;;;;52.37;23.30;;;;;;;-1.88;100.00;100030.42;4443255;78;21022;-86
2022/11/30 06:44:13;;;;;;;63.10;25.63;;;;;;;-1.86;100.00;100030.16;4462018;78;21907;-87
2022/11/30 06:50:15;;;;;;;61.30;25.63;;;;;;;-1.84;100.00;100040.09;4472640;79;21062;-87
2022/11/30 06:56:16;;;;;;;56.03;25.03;;;;;;;-1.88;100.00;100036.34;4466980;79;21073;-85
2022/11/30 07:02:17;;;;;;;53.57;24.13;;;;;;;-1.92;100.00;100040.09;4463407;78;21937;-86
2022/11/30 07:08:19;;;;;;;59.77;25.63;;;;;;;-1.97;100.00;100039.27;4457311;78;20927;-84
2022/11/30 07:14:20;;;;;;;53.83;23.63;;;;;;;-1.98;100.00;100045.73;4464693;78;20997;-86
2022/11/30 07:20:22;;;;;;;57.50;23.83;;;;;;;-1.95;100.00;100047.88;4467343;79;21014;-85
2022/11/30 07:26:24;;;;;;;57.40;25.50;;;;;;;-1.98;100.00;100049.75;4451970;78;21014;-87
2022/11/30 07:32:26;;;;;;;54.13;22.93;;;;;;;-1.98;100.00;100049.22;4416058;78;21029;-85
2022/11/30 07:38:27;;;;;;;58.83;27.07;;;;;;;-1.98;100.00;100050.56;4444371;78;21497;-85
2022/11/30 07:44:28;;;;;;;53.50;24.73;;;;;;;-1.96;100.00;100060.47;4467008;79;21073;-85
2022/11/30 07:50:31;;;;;;;54.20;23.90;;;;;;;-1.92;100.00;100064.25;4372830;80;20956;-85
2022/11/30 07:56:32;;;;;;;67.30;26.53;;;;;;;-1.93;100.00;100065.86;4472764;78;20999;-84
2022/11/30 08:02:51;;;;;;;50.03;22.83;;;;;;;-1.89;100.00;100066.40;4452453;79;20936;-83
2022/11/30 08:08:57;;;;;;;49.43;22.20;;;;;;;-1.88;100.00;100073.37;4360449;80;20992;-83
2022/11/30 08:14:59;;;;;;;45.83;19.02;;;;;;;-1.88;100.00;100071.23;4466659;78;21010;-83
2022/11/30 08:21:04;;;;;;;67.27;25.70;;;;;;;-1.94;100.00;100074.44;4441499;79;34081;-85
2022/11/30 08:27:06;;;;;;;53.77;23.27;;;;;;;-1.93;100.00;100070.70;4384321;80;21012;-86
2022/11/30 08:33:07;;;;;;;60.93;25.73;;;;;;;-1.91;100.00;100073.12;4367250;80;21019;-84
2022/11/30 08:39:11;;;;;;;57.97;24.70;;;;;;;-1.89;100.00;100076.31;4360050;80;20985;-84
2022/11/30 08:45:13;;;;;;;54.57;24.17;;;;;;;-1.81;100.00;100083.31;4371055;80;20978;-84
2022/11/30 08:51:17;;;;;;;57.83;24.97;;;;;;;-1.81;100.00;100086.52;4377928;80;21322;-86
2022/11/30 08:57:20;;;;;;;57.87;25.00;;;;;;;-1.78;100.00;100085.98;4374274;80;21536;-85
2022/11/30 09:03:22;;;;;;;59.80;28.07;;;;;;;-1.76;100.00;100083.32;4380489;80;21005;-85
2022/11/30 09:09:26;;;;;;;56.75;24.55;;;;;;;-1.80;100.00;100078.73;4360572;80;21970;-87
2022/11/30 09:15:28;;;;;;;61.37;25.10;;;;;;;-1.78;100.00;100081.96;4358242;80;21033;-86
2022/11/30 09:21:29;;;;;;;55.10;25.13;;;;;;;-1.75;100.00;100094.31;4365237;80;21621;-85
2022/11/30 09:27:32;;;;;;;54.20;24.47;;;;;;;-1.67;100.00;100091.10;4367136;80;20992;-86
2022/11/30 09:33:34;;;;;;;47.43;21.27;;;;;;;-1.60;100.00;100080.87;4352648;80;21005;-86
2022/11/30 09:39:35;;;;;;;62.73;25.73;;;;;;;-1.62;100.00;100085.73;4359931;80;21008;-86
2022/11/30 09:45:38;;;;;;;53.63;24.27;;;;;;;-1.64;100.00;100080.34;4382226;80;21077;-85
2022/11/30 09:51:45;;;;;;;54.63;23.20;;;;;;;-1.63;100.00;100073.37;4363728;80;21104;-84
2022/11/30 09:57:57;;;;;;;53.93;24.07;;;;;;;-1.66;100.00;100067.19;4372386;80;21901;-87
2022/11/30 10:04:02;;;;;;;50.73;22.80;;;;;;;-1.64;100.00;100062.89;4372147;80;21006;-84
2022/11/30 10:10:36;;;;;;;56.17;22.77;;;;;;;-1.63;100.00;100061.84;4369808;80;21046;-85
2022/11/30 10:16:58;;;;;;;48.00;24.03;;;;;;;-1.65;100.00;100054.59;4363006;80;21058;-85
2022/11/30 10:23:26;;;;;;;46.97;22.50;;;;;;;-1.63;100.00;100053.23;4365837;80;21033;-85
2022/11/30 10:29:35;;;;;;;56.77;26.50;;;;;;;-1.58;100.00;100054.31;4359870;80;21085;-84
2022/11/30 10:36:02;;;;;;;56.30;26.87;;;;;;;-1.54;100.00;100040.61;4375295;80;21046;-84
2022/11/30 10:42:06;;;;;;;;;;;;;;;-1.47;100.00;100044.62;4365049;80;20981;-85
2022/11/30 10:48:34;;;;;;;55.90;24.20;;;;;;;-1.36;100.00;100040.84;4337060;80;20154;-84
2022/11/30 10:54:36;;;;;;;62.97;26.50;;;;;;;-1.32;100.00;100034.39;4373453;80;21054;-84
2022/11/30 11:00:37;;;;;;;57.40;26.80;;;;;;;-1.28;100.00;100032.79;4359216;80;21025;-84
2022/11/30 11:06:59;;;;;;;54.20;24.23;;;;;;;-1.23;100.00;100029.53;4368882;80;21655;-84
2022/11/30 11:13:01;;;;;;;52.37;25.10;;;;;;;-1.15;100.00;100029.51;4354016;80;21060;-85
2022/11/30 11:19:03;;;;;;;51.73;26.15;;;;;;;-1.15;100.00;100031.67;4367885;80;21123;-84
2022/11/30 11:25:36;;;;;;;56.20;27.60;;;;;;;-1.16;100.00;100031.38;4365919;80;21380;-86
2022/11/30 11:31:45;;;;;;;54.13;24.98;;;;;;;-1.17;100.00;100035.16;4368729;80;21003;-86
2022/11/30 11:37:51;;;;;;;51.18;25.60;;;;;;;-1.23;100.00;100038.13;4355042;80;21013;-85
2022/11/30 11:44:13;;;;;;;51.42;24.35;;;;;;;-1.23;100.00;100046.19;4368005;80;21427;-85
2022/11/30 11:50:29;;;;;;;51.42;25.70;;;;;;;-1.25;100.00;100045.11;4380693;80;21823;-85
2022/11/30 11:56:36;;;;;;;48.95;25.43;;;;;;;-1.28;100.00;100041.63;4348434;80;21055;-84
2022/11/30 12:03:00;;;;;;;51.00;25.80;;;;;;;-1.23;100.00;100041.63;4318418;80;21052;-86
2022/11/30 12:09:13;;;;;;;54.35;26.40;;;;;;;-1.20;100.00;100033.55;4336581;80;21692;-85
2022/11/30 12:15:14;;;;;;;47.83;24.37;;;;;;;-1.16;100.00;100030.04;4350335;80;20981;-85
2022/11/30 12:21:47;;;;;;;54.27;27.40;;;;;;;-1.17;100.00;100041.88;4324850;80;21537;-85
2022/11/30 12:28:03;;;;;;;52.90;26.77;;;;;;;-1.19;100.00;100041.33;4333262;80;21046;-86
2022/11/30 12:34:22;;;;;;;49.38;24.10;;;;;;;-1.20;100.00;100051.02;4325015;80;21075;-86
2022/11/30 12:40:55;;;;;;;48.70;25.90;;;;;;;-1.24;100.00;100052.11;4317871;80;21021;-86
2022/11/30 12:47:19;;;;;;;51.60;26.43;;;;;;;-1.24;100.00;100052.11;4327747;80;21018;-86
2022/11/30 12:53:29;;;;;;;53.37;24.93;;;;;;;-1.23;100.00;100043.50;4340840;80;21501;-87
2022/11/30 12:59:45;;;;;;;52.23;25.90;;;;;;;-1.17;100.00;100045.91;4373174;80;21677;-87
2022/11/30 13:06:01;;;;;;;55.08;26.93;;;;;;;-1.15;100.00;100038.38;4380617;79;21015;-86
2022/11/30 13:12:25;;;;;;;46.92;24.47;;;;;;;-1.14;100.00;100038.64;4372617;80;22102;-85
2022/11/30 13:18:27;;;;;;;54.43;26.43;;;;;;;-1.09;100.00;100039.16;4380437;80;21044;-85
2022/11/30 13:24:36;;;;;;;51.13;27.77;;;;;;;-1.05;100.00;100036.98;4398667;80;20997;-85
2022/11/30 13:30:54;;;;;;;64.77;30.10;;;;;;;-1.02;100.00;100041.03;4387798;80;21071;-86
2022/11/30 13:37:09;;;;;;;54.90;28.07;;;;;;;-1.00;100.00;100038.33;4389911;80;21002;-86
2022/11/30 13:43:17;;;;;;;64.82;30.08;;;;;;;-1.02;100.00;100031.62;4369182;80;20962;-85
2022/11/30 13:49:23;;;;;;;69.37;31.73;;;;;;;-1.06;100.00;100032.70;4380299;78;20980;-86
2022/11/30 13:55:51;;;;;;;75.50;34.78;;;;;;;-1.06;100.00;100034.05;4386711;80;21559;-85
2022/11/30 14:02:40;;;;;;;66.82;32.45;;;;;;;-1.10;100.00;100026.81;4328317;80;20984;-86
2022/11/30 14:08:39;;;;;;;70.42;33.33;;;;;;;-1.10;100.00;100022.78;4242555;82;21051;-86
2022/11/30 14:14:46;;;;;;;70.90;33.50;;;;;;;-1.08;100.00;100026.01;4230195;82;21060;-87
2022/11/30 14:21:02;;;;;;;73.20;34.40;;;;;;;-1.09;100.00;100029.22;4180178;84;21031;-84
2022/11/30 14:27:04;;;;;;;75.20;35.50;;;;;;;-1.09;100.00;100026.53;4241064;82;21899;-85
2022/11/30 14:33:20;;;;;;;86.45;39.98;;;;;;;-1.04;100.00;100022.50;4202147;83;21544;-86
2022/11/30 14:39:38;;;;;;;113.12;49.13;;;;;;;-0.98;100.00;100029.98;4194826;83;21047;-86
2022/11/30 14:45:40;;;;;;;83.40;38.73;;;;;;;-1.02;100.00;100016.84;4189422;83;21059;-85
2022/11/30 14:51:54;;;;;;;123.07;48.70;;;;;;;-1.05;100.00;100020.08;4195361;83;21065;-86
2022/11/30 14:58:19;;;;;;;74.25;33.92;;;;;;;-1.05;100.00;100026.80;4198843;83;21039;-88
2022/11/30 15:04:22;;;;;;;68.52;32.58;;;;;;;-1.06;100.00;100030.55;4275597;82;21424;-86
2022/11/30 15:10:31;;;;;;;69.32;31.48;;;;;;;-1.09;100.00;100038.62;4250548;82;21370;-86
2022/11/30 15:16:32;;;;;;;71.20;32.60;;;;;;;-1.09;100.00;100034.59;4265372;81;21057;-86
2022/11/30 15:22:35;;;;;;;68.57;30.70;;;;;;;-1.06;100.00;100048.02;4256493;81;22245;-86
2022/11/30 15:28:42;;;;;;;63.50;28.83;;;;;;;-1.07;100.00;100049.10;4272953;81;21004;-85
2022/11/30 15:34:47;;;;;;;70.45;31.05;;;;;;;-1.08;100.00;100053.66;4276337;81;21481;-85
2022/11/30 15:40:51;;;;;;;68.07;31.25;;;;;;;-1.06;100.00;100054.20;4267060;81;20984;-86
2022/11/30 15:46:57;;;;;;;83.03;36.65;;;;;;;-1.03;100.00;100058.22;4268620;81;21036;-86
2022/11/30 15:53:02;;;;;;;85.47;36.88;;;;;;;-1.00;100.00;100062.52;4272280;81;22012;-85
2022/11/30 15:59:27;;;;;;;68.60;33.33;;;;;;;-0.97;100.00;100065.99;4272482;81;21033;-84
2022/11/30 16:05:28;;;;;;;70.03;30.63;;;;;;;-0.91;100.00;100070.27;4265585;81;22069;-85
2022/11/30 16:11:29;;;;;;;62.75;29.52;;;;;;;-0.88;100.00;100077.81;4263102;81;21012;-84
2022/11/30 16:17:34;;;;;;;60.48;29.10;;;;;;;-0.87;100.00;100075.38;4256599;82;21016;-85
2022/11/30 16:23:36;;;;;;;62.48;31.42;;;;;;;-0.87;100.00;100082.10;4246464;82;20999;-86
2022/11/30 16:29:37;;;;;;;63.23;30.57;;;;;;;-0.85;100.00;100088.02;4271730;81;21024;-85
2022/11/30 16:36:11;;;;;;;63.85;29.98;;;;;;;-0.84;100.00;100086.11;4265951;81;21096;-86
2022/11/30 16:42:13;;;;;;;48.45;24.15;;;;;;;-0.83;100.00;100094.46;4261098;81;21674;-85
2022/11/30 16:48:15;;;;;;;40.50;21.47;;;;;;;-0.84;100.00;100082.08;4267667;81;21047;-87
2022/11/30 16:54:17;;;;;;;49.55;25.15;;;;;;;-0.82;100.00;100083.97;4264097;81;22270;-85
2022/11/30 17:00:20;;;;;;;53.25;25.17;;;;;;;-0.80;100.00;100084.50;4266309;81;21715;-86
2022/11/30 17:06:25;;;;;;;47.00;23.98;;;;;;;-0.80;100.00;100081.81;4266006;81;21035;-86
2022/11/30 17:12:28;;;;;;;43.95;22.25;;;;;;;-0.81;100.00;100086.91;4235478;81;21143;-86
2022/11/30 17:18:32;;;;;;;42.78;22.55;;;;;;;-0.83;100.00;100082.37;4223422;83;21099;-86
2022/11/30 17:24:33;;;;;;;46.10;23.73;;;;;;;-0.84;100.00;100088.27;4172309;84;21027;-86
2022/11/30 17:30:35;;;;;;;48.43;24.83;;;;;;;-0.80;100.00;100084.50;4375420;80;21024;-87
2022/11/30 17:36:37;;;;;;;41.07;21.77;;;;;;;-0.82;100.00;100098.22;4381759;80;21017;-86
2022/11/30 17:42:39;;;;;;;50.55;24.77;;;;;;;-0.82;100.00;100094.19;4376916;80;21062;-85
2022/11/30 17:48:42;;;;;;;49.48;23.65;;;;;;;-0.80;100.00;100087.98;4268983;81;20962;-86
2022/11/30 17:54:43;;;;;;;55.55;25.40;;;;;;;-0.79;100.00;100095.52;4273738;81;21019;-84
2022/11/30 18:00:45;;;;;;;56.23;26.95;;;;;;;-0.77;100.00;100096.87;4285077;81;21011;-86
2022/11/30 18:06:46;;;;;;;52.30;27.63;;;;;;;-0.76;100.00;100090.92;4149523;81;10000187;-85
2022/11/30 18:12:48;;;;;;;62.25;32.42;;;;;;;-0.76;100.00;100091.74;4277365;81;21064;-87
2022/11/30 18:18:50;;;;;;;69.42;32.88;;;;;;;-0.75;100.00;100093.91;4271245;81;20988;-87
2022/11/30 18:24:52;;;;;;;67.60;33.85;;;;;;;-0.78;100.00;100093.89;4284248;81;20960;-85
2022/11/30 18:30:53;;;;;;;76.30;35.68;;;;;;;-0.77;100.00;100098.73;4281986;81;21523;-86
2022/11/30 18:36:57;;;;;;;78.12;35.85;;;;;;;-0.75;100.00;100093.91;4290498;81;21009;-85
2022/11/30 18:42:58;;;;;;;75.60;35.80;;;;;;;-0.75;100.00;100097.94;4279487;81;21024;-86
2022/11/30 18:49:00;;;;;;;77.55;35.38;;;;;;;-0.75;100.00;100097.94;4276222;81;20977;-86
2022/11/30 18:55:02;;;;;;;74.17;34.53;;;;;;;-0.79;100.00;100103.05;4273584;81;21071;-86
2022/11/30 19:01:10;;;;;;;76.40;34.13;;;;;;;-0.78;100.00;100105.99;4270515;81;21047;-86
2022/11/30 19:07:11;;;;;;;83.20;37.78;;;;;;;-0.79;100.00;100114.33;4253080;81;21011;-85
2022/11/30 19:13:13;;;;;;;70.35;33.70;;;;;;;-0.83;100.00;100110.59;4265435;81;21853;-86
2022/11/30 19:19:14;;;;;;;77.37;33.73;;;;;;;-0.84;100.00;100121.87;4285875;81;21424;-85
2022/11/30 19:25:15;;;;;;;71.37;33.95;;;;;;;-0.89;100.00;100121.88;4274923;81;22122;-85
2022/11/30 19:31:18;;;;;;;79.57;35.27;;;;;;;-0.92;100.00;100118.40;4270451;81;22240;-86
2022/11/30 19:37:19;;;;;;;62.45;29.67;;;;;;;-0.93;100.00;100121.36;4279916;81;21591;-86
2022/11/30 19:43:21;;;;;;;69.20;30.72;;;;;;;-0.92;100.00;100117.58;4278525;81;21043;-86
2022/11/30 19:49:22;;;;;;;67.20;30.17;;;;;;;-0.91;100.00;100114.63;4273752;81;21998;-86
2022/11/30 19:55:23;;;;;;;54.53;25.48;;;;;;;-0.88;100.00;100109.26;4261022;81;21939;-86
2022/11/30 20:01:26;;;;;;;59.60;26.42;;;;;;;-0.89;100.00;100113.03;4257643;81;21983;-85
2022/11/30 20:07:28;;;;;;;56.58;25.75;;;;;;;-0.94;100.00;100128.61;4259603;81;20972;-86
2022/11/30 20:13:30;;;;;;;48.00;22.47;;;;;;;-0.95;100.00;100129.70;4256746;81;21072;-86
2022/11/30 20:19:31;;;;;;;49.20;22.90;;;;;;;-0.93;100.00;100136.95;4227446;82;21567;-86
2022/11/30 20:25:33;;;;;;;49.10;23.60;;;;;;;-0.93;100.00;100135.62;4198361;83;22047;-86
2022/11/30 20:31:36;;;;;;;50.28;24.32;;;;;;;-0.93;100.00;100128.89;4265837;82;20995;-86
2022/11/30 20:37:37;;;;;;;47.00;21.73;;;;;;;-0.91;100.00;100121.34;4368075;80;20983;-86
2022/11/30 20:43:40;;;;;;;46.33;23.10;;;;;;;-0.89;100.00;100119.20;4356825;80;21869;-86
2022/11/30 20:49:41;;;;;;;43.98;21.23;;;;;;;-0.85;100.00;100114.09;4362411;80;21973;-86
2022/11/30 20:55:45;;;;;;;46.97;20.40;;;;;;;-0.84;100.00;100112.47;4358785;80;20983;-86
2022/11/30 21:01:46;;;;;;;50.58;21.73;;;;;;;-0.81;100.00;100116.48;4331527;80;20968;-86
2022/11/30 21:07:48;;;;;;;51.45;24.70;;;;;;;-0.79;100.00;100107.08;4228262;82;21050;-86
2022/11/30 21:13:50;;;;;;;52.73;23.52;;;;;;;-0.79;100.00;100107.08;4226704;82;21033;-85
2022/11/30 21:19:51;;;;;;;51.73;23.47;;;;;;;-0.74;100.00;100110.29;4242798;82;21043;-85
2022/11/30 21:25:53;;;;;;;56.48;23.77;;;;;;;-0.71;100.00;100110.55;4202408;82;21001;-85
2022/11/30 21:31:54;;;;;;;55.25;24.07;;;;;;;-0.67;100.00;100109.44;4218655;82;21681;-86
2022/11/30 21:37:56;;;;;;;59.67;27.25;;;;;;;-0.65;100.00;100112.67;4168934;84;21019;-86
2022/11/30 21:43:58;;;;;;;57.15;26.02;;;;;;;-0.65;100.00;100112.67;4220341;82;20968;-85
2022/11/30 21:49:59;;;;;;;59.23;27.58;;;;;;;-0.59;100.00;100112.38;4178320;84;21228;-85
2022/11/30 21:56:04;;;;;;;58.38;27.58;;;;;;;-0.56;100.00;100107.80;4223630;82;21030;-85
2022/11/30 22:02:05;;;;;;;62.73;27.80;;;;;;;-0.54;100.00;100102.95;4319789;80;20997;-85
2022/11/30 22:08:07;;;;;;;56.40;25.35;;;;;;;-0.61;100.00;100080.13;4345756;80;21889;-85
2022/11/30 22:14:14;;;;;;;61.50;27.00;;;;;;;-0.51;100.00;100104.27;4338793;80;21039;-85
2022/11/30 22:20:18;;;;;;;55.52;24.98;;;;;;;-0.51;100.00;100104.27;4330166;80;21057;-86
2022/11/30 22:26:29;;;;;;;55.33;25.82;;;;;;;-0.51;100.00;100103.75;4347220;80;21442;-85
2022/11/30 22:32:30;;;;;;;63.05;27.75;;;;;;;-0.52;100.00;100111.53;4313524;80;21016;-85
2022/11/30 22:38:33;;;;;;;65.97;28.35;;;;;;;-0.50;100.00;100100.53;4228960;82;21610;-86
2022/11/30 22:44:34;;;;;;;58.15;26.55;;;;;;;-0.48;100.00;100099.69;4242317;82;21002;-85
2022/11/30 22:50:36;;;;;;;67.17;28.77;;;;;;;-0.42;100.00;100097.23;4239477;82;21069;-86
2022/11/30 22:56:43;;;;;;;63.87;27.30;;;;;;;-0.40;100.00;100091.86;4225786;82;21009;-85
2022/11/30 23:03:15;;;;;;;62.00;27.52;;;;;;;-0.40;100.00;100103.97;4141854;84;21091;-85
2022/11/30 23:09:20;;;;;;;63.35;28.77;;;;;;;-0.39;100.00;100101.53;4125941;84;21035;-85
2022/11/30 23:15:21;;;;;;;61.58;28.65;;;;;;;-0.36;100.00;100095.59;4285061;81;21060;-86
2022/11/30 23:21:29;;;;;;;67.37;29.95;;;;;;;-0.34;100.00;100088.59;4274765;81;21007;-86
2022/11/30 23:27:31;;;;;;;66.75;32.15;;;;;;;-0.34;100.00;100083.20;4272204;81;21643;-85
2022/11/30 23:33:32;;;;;;;76.53;33.35;;;;;;;-0.32;100.00;100083.74;4270741;81;21697;-85
2022/11/30 23:39:34;;;;;;;72.53;32.90;;;;;;;-0.35;100.00;100075.70;4277215;81;21039;-85
2022/11/30 23:45:35;;;;;;;69.95;32.50;;;;;;;-0.34;100.00;100067.06;4259368;81;22063;-86
2022/11/30 23:51:36;;;;;;;72.08;32.10;;;;;;;-0.33;100.00;100063.31;4264042;81;21059;-85
2022/11/30 23:57:38;;;;;;;74.03;33.10;;;;;;;-0.35;100.00;100058.21;4276901;81;21079;-86
